createdAt,value
2019-05-11T00:00:23.090Z,11.66
2019-05-11T00:02:55.044Z,11.86
2019-05-11T00:05:27.061Z,11.85
2019-05-11T00:07:59.344Z,11.58
2019-05-11T00:10:31.236Z,11.49
2019-05-11T00:13:03.197Z,11.30
2019-05-11T00:15:35.049Z,11.24
2019-05-11T00:18:06.606Z,11.22
2019-05-11T00:20:38.464Z,10.82
2019-05-11T00:23:10.710Z,11.24
2019-05-11T00:25:42.517Z,11.34
2019-05-11T00:28:14.033Z,11.69
2019-05-11T00:30:46.343Z,11.87
2019-05-11T00:33:17.881Z,11.59
2019-05-11T00:35:50.116Z,11.54
2019-05-11T00:38:22.014Z,11.48
2019-05-11T00:40:54.020Z,11.61
2019-05-11T00:43:25.725Z,11.30
2019-05-11T00:45:57.255Z,11.18
2019-05-11T00:48:29.219Z,11.18
2019-05-11T00:51:01.078Z,11.05
2019-05-11T00:53:33.321Z,10.64
2019-05-11T00:56:04.803Z,10.72
2019-05-11T00:58:36.659Z,10.77
2019-05-11T01:01:08.005Z,10.54
2019-05-11T01:03:39.780Z,10.59
2019-05-11T01:06:12.000Z,10.71
2019-05-11T01:08:43.856Z,10.91
2019-05-11T01:11:15.541Z,10.86
2019-05-11T01:13:47.207Z,10.79
2019-05-11T01:16:19.163Z,10.64
2019-05-11T01:18:51.207Z,10.51
2019-05-11T01:21:23.250Z,10.66
2019-05-11T01:23:55.262Z,10.38
2019-05-11T01:26:27.487Z,10.65
2019-05-11T01:28:59.291Z,10.41
2019-05-11T01:31:31.160Z,10.62
2019-05-11T01:34:03.288Z,10.59
2019-05-11T01:36:35.264Z,10.59
2019-05-11T01:39:07.542Z,10.53
2019-05-11T01:41:39.314Z,10.88
2019-05-11T01:44:10.754Z,11.02
2019-05-11T01:46:42.305Z,10.68
2019-05-11T01:49:14.345Z,10.74
2019-05-11T01:51:45.957Z,10.94
2019-05-11T01:54:17.812Z,10.55
2019-05-11T01:56:49.881Z,10.45
2019-05-11T01:59:21.505Z,10.55
2019-05-11T02:01:53.353Z,10.54
2019-05-11T02:04:25.203Z,10.62
2019-05-11T02:06:57.096Z,11.01
2019-05-11T02:09:28.775Z,10.77
2019-05-11T02:12:00.510Z,10.78
2019-05-11T02:14:32.453Z,10.75
2019-05-11T02:17:04.309Z,10.69
2019-05-11T02:19:35.584Z,10.80
2019-05-11T02:22:07.453Z,10.69
2019-05-11T02:24:38.665Z,10.83
2019-05-11T02:27:10.219Z,10.67
2019-05-11T02:29:42.484Z,10.62
2019-05-11T02:32:14.154Z,10.53
2019-05-11T02:34:46.033Z,10.40
2019-05-11T02:37:17.814Z,10.57
2019-05-11T02:39:49.648Z,10.67
2019-05-11T02:42:21.337Z,10.43
2019-05-11T02:44:52.817Z,10.50
2019-05-11T02:47:24.436Z,10.40
2019-05-11T02:49:56.053Z,10.43
2019-05-11T02:52:28.018Z,10.48
2019-05-11T02:55:01.566Z,10.54
2019-05-11T02:57:33.225Z,10.31
2019-05-11T03:00:06.097Z,10.31
2019-05-11T03:02:38.104Z,10.63
2019-05-11T03:05:09.573Z,10.35
2019-05-11T03:07:41.377Z,10.60
2019-05-11T03:10:12.641Z,10.42
2019-05-11T03:12:44.509Z,10.61
2019-05-11T03:15:17.521Z,10.50
2019-05-11T03:17:48.944Z,10.57
2019-05-11T03:20:20.498Z,10.44
2019-05-11T03:22:52.487Z,10.63
2019-05-11T03:25:24.628Z,10.46
2019-05-11T03:27:57.926Z,10.36
2019-05-11T03:30:29.192Z,10.48
2019-05-11T03:33:01.169Z,10.20
2019-05-11T03:35:33.982Z,10.32
2019-05-11T03:38:05.742Z,10.29
2019-05-11T03:40:37.255Z,10.23
2019-05-11T03:43:08.797Z,10.08
2019-05-11T03:45:40.585Z,10.01
2019-05-11T03:48:12.808Z,10.13
2019-05-11T03:50:44.588Z,10.37
2019-05-11T03:53:16.563Z,10.53
2019-05-11T03:55:48.793Z,10.48
2019-05-11T03:58:25.517Z,10.38
2019-05-11T04:00:53.681Z,10.24
2019-05-11T04:03:25.651Z,10.15
2019-05-11T04:05:57.452Z,10.14
2019-05-11T04:08:29.614Z,10.21
2019-05-11T04:11:01.273Z,10.15
2019-05-11T04:13:33.074Z,10.37
2019-05-11T04:16:04.380Z,10.20
2019-05-11T04:18:37.124Z,10.07
2019-05-11T04:21:09.189Z,10.38
2019-05-11T04:23:41.058Z,10.39
2019-05-11T04:26:12.533Z,10.36
2019-05-11T04:28:44.621Z,10.19
2019-05-11T04:31:16.343Z,10.11
2019-05-11T04:33:47.802Z,10.12
2019-05-11T04:36:19.762Z,10.31
2019-05-11T04:38:52.761Z,10.16
2019-05-11T04:41:24.912Z,10.33
2019-05-11T04:43:56.480Z,10.45
2019-05-11T04:46:27.927Z,10.58
2019-05-11T04:49:00.060Z,10.46
2019-05-11T04:51:31.637Z,10.41
2019-05-11T04:54:03.713Z,10.40
2019-05-11T04:56:35.578Z,10.43
2019-05-11T04:59:07.246Z,10.63
2019-05-11T05:01:39.189Z,10.39
2019-05-11T05:04:14.295Z,10.49
2019-05-11T05:06:57.835Z,10.44
2019-05-11T05:09:19.300Z,10.58
2019-05-11T05:11:51.748Z,10.39
2019-05-11T05:14:23.789Z,10.43
2019-05-11T05:16:55.701Z,10.47
2019-05-11T05:19:28.182Z,10.29
2019-05-11T05:22:02.176Z,10.32
2019-05-11T05:24:34.840Z,10.37
2019-05-11T05:27:07.017Z,10.54
2019-05-11T05:29:39.477Z,10.49
2019-05-11T05:32:11.338Z,10.47
2019-05-11T05:34:42.896Z,10.42
2019-05-11T05:37:15.686Z,10.33
2019-05-11T05:39:48.105Z,10.46
2019-05-11T05:42:19.901Z,10.32
2019-05-11T05:44:52.146Z,10.42
2019-05-11T05:47:23.909Z,10.32
2019-05-11T05:49:56.090Z,10.43
2019-05-11T05:52:27.429Z,10.30
2019-05-11T05:54:59.947Z,10.43
2019-05-11T05:57:31.611Z,10.42
2019-05-11T06:00:03.250Z,10.30
2019-05-11T06:02:35.312Z,10.26
2019-05-11T06:05:06.962Z,10.34
2019-05-11T06:07:39.264Z,10.26
2019-05-11T06:10:11.007Z,10.34
2019-05-11T06:12:43.176Z,10.36
2019-05-11T06:15:14.679Z,10.49
2019-05-11T06:17:46.379Z,10.60
2019-05-11T06:20:18.112Z,10.66
2019-05-11T06:22:50.244Z,10.53
2019-05-11T06:25:22.095Z,10.64
2019-05-11T06:27:54.219Z,10.56
2019-05-11T06:30:25.674Z,10.78
2019-05-11T06:32:57.907Z,10.62
2019-05-11T06:35:29.966Z,10.80
2019-05-11T06:38:01.545Z,10.57
2019-05-11T06:40:33.489Z,10.70
2019-05-11T06:43:05.626Z,10.79
2019-05-11T06:45:37.555Z,10.87
2019-05-11T06:48:09.599Z,10.88
2019-05-11T06:50:41.171Z,10.88
2019-05-11T06:53:12.788Z,10.89
2019-05-11T06:55:44.331Z,11.02
2019-05-11T06:58:16.837Z,10.97
2019-05-11T07:00:48.543Z,11.20
2019-05-11T07:03:20.428Z,11.19
2019-05-11T07:05:52.476Z,11.36
2019-05-11T07:08:24.256Z,11.33
2019-05-11T07:10:56.111Z,11.41
2019-05-11T07:13:27.939Z,11.67
2019-05-11T07:15:59.179Z,11.50
2019-05-11T07:18:31.180Z,11.12
2019-05-11T07:21:03.287Z,10.99
2019-05-11T07:23:34.804Z,11.20
2019-05-11T07:26:06.697Z,11.16
2019-05-11T07:28:38.445Z,11.22
2019-05-11T07:31:10.685Z,11.24
2019-05-11T07:33:42.561Z,11.14
2019-05-11T07:36:14.504Z,11.18
2019-05-11T07:38:48.599Z,11.25
2019-05-11T07:41:20.017Z,10.98
2019-05-11T07:43:51.988Z,11.10
2019-05-11T07:46:23.716Z,11.01
2019-05-11T07:48:55.564Z,11.11
2019-05-11T07:51:28.788Z,11.33
2019-05-11T07:54:02.150Z,11.29
2019-05-11T07:56:33.945Z,11.28
2019-05-11T07:59:05.027Z,11.62
2019-05-11T08:01:38.675Z,11.45
2019-05-11T08:04:10.629Z,11.46
2019-05-11T08:06:43.223Z,11.48
2019-05-11T08:09:15.303Z,11.45
2019-05-11T08:11:47.897Z,11.22
2019-05-11T08:14:19.998Z,11.49
2019-05-11T08:16:51.837Z,11.36
2019-05-11T08:19:23.537Z,11.45
2019-05-11T08:21:55.151Z,11.70
2019-05-11T08:24:28.410Z,11.45
2019-05-11T08:27:00.418Z,11.37
2019-05-11T08:29:32.628Z,11.38
2019-05-11T08:32:04.351Z,11.43
2019-05-11T08:34:36.288Z,11.87
2019-05-11T08:37:08.849Z,11.83
2019-05-11T08:39:41.747Z,11.88
2019-05-11T08:42:13.530Z,11.53
2019-05-11T08:44:48.278Z,11.61
2019-05-11T08:47:19.629Z,11.49
2019-05-11T08:49:51.379Z,11.41
2019-05-11T08:52:22.646Z,11.44
2019-05-11T08:54:53.953Z,11.40
2019-05-11T08:57:25.706Z,11.29
2019-05-11T08:59:58.024Z,11.43
2019-05-11T09:02:30.124Z,11.46
2019-05-11T09:05:02.022Z,11.18
2019-05-11T09:07:34.167Z,11.23
2019-05-11T09:10:07.967Z,11.28
2019-05-11T09:12:39.106Z,11.13
2019-05-11T09:17:49.911Z,11.54
2019-05-11T09:20:21.434Z,11.35
2019-05-11T09:22:53.435Z,11.44
2019-05-11T09:25:25.160Z,11.37
2019-05-11T09:27:58.758Z,11.66
2019-05-11T09:30:30.761Z,11.62
2019-05-11T09:33:03.509Z,11.50
2019-05-11T09:35:46.645Z,11.44
2019-05-11T09:38:09.082Z,11.45
2019-05-11T09:40:40.732Z,11.42
2019-05-11T09:43:13.396Z,11.10
2019-05-11T09:45:48.645Z,11.34
2019-05-11T09:48:18.556Z,11.24
2019-05-11T09:50:49.922Z,11.27
2019-05-11T09:53:22.207Z,10.99
2019-05-11T09:55:53.905Z,11.11
2019-05-11T09:58:27.937Z,11.28
2019-05-11T10:00:59.486Z,11.14
2019-05-11T10:03:31.358Z,11.04
2019-05-11T10:06:03.284Z,10.89
2019-05-11T10:08:38.099Z,10.87
2019-05-11T10:11:09.235Z,10.89
2019-05-11T10:13:41.770Z,10.94
2019-05-11T10:16:13.780Z,11.08
2019-05-11T10:18:45.474Z,11.00
2019-05-11T10:21:18.730Z,10.82
2019-05-11T10:23:50.985Z,11.16
2019-05-11T10:26:22.383Z,11.15
2019-05-11T10:28:54.677Z,10.68
2019-05-11T10:31:28.258Z,10.58
2019-05-11T10:33:59.503Z,10.83
2019-05-11T10:36:31.379Z,10.83
2019-05-11T10:39:03.438Z,10.59
2019-05-11T10:41:35.392Z,10.91
2019-05-11T10:44:08.246Z,10.63
2019-05-11T10:46:40.236Z,10.42
2019-05-11T10:49:11.553Z,10.56
2019-05-11T10:51:43.493Z,10.28
2019-05-11T10:54:15.145Z,10.34
2019-05-11T10:56:48.176Z,10.21
2019-05-11T10:59:19.642Z,10.41
2019-05-11T11:01:51.620Z,10.38
2019-05-11T11:04:24.169Z,10.24
2019-05-11T11:06:56.399Z,10.47
2019-05-11T11:09:29.022Z,10.27
2019-05-11T11:12:01.037Z,10.42
2019-05-11T11:14:33.032Z,10.36
2019-05-11T11:17:05.422Z,10.65
2019-05-11T11:19:38.086Z,10.45
2019-05-11T11:22:34.983Z,10.55
2019-05-11T11:24:43.472Z,10.50
2019-05-11T11:27:15.322Z,10.84
2019-05-11T11:29:47.587Z,10.97
2019-05-11T11:32:19.646Z,10.68
2019-05-11T11:34:51.838Z,10.83
2019-05-11T11:37:23.815Z,10.70
2019-05-11T11:39:57.970Z,10.64
2019-05-11T11:42:29.374Z,10.36
2019-05-11T11:45:01.884Z,10.60
2019-05-11T11:47:34.696Z,10.78
2019-05-11T11:50:09.091Z,10.78
2019-05-11T11:52:41.326Z,10.83
2019-05-11T11:55:13.355Z,10.82
2019-05-11T11:57:45.567Z,11.03
2019-05-11T12:00:18.367Z,11.10
2019-05-11T12:02:50.370Z,11.11
2019-05-11T12:05:22.433Z,11.17
2019-05-11T12:07:54.231Z,11.10
2019-05-11T12:10:25.569Z,11.19
2019-05-11T12:12:58.075Z,11.23
2019-05-11T12:15:31.326Z,11.23
2019-05-11T12:18:03.282Z,11.18
2019-05-11T12:20:35.408Z,11.05
2019-05-11T12:23:08.744Z,11.19
2019-05-11T12:25:40.802Z,11.33
2019-05-11T12:28:12.640Z,11.44
2019-05-11T12:30:43.914Z,11.12
2019-05-11T12:33:18.638Z,11.10
2019-05-11T12:35:50.741Z,11.48
2019-05-11T12:38:22.492Z,11.27
2019-05-11T12:40:54.395Z,11.14
2019-05-11T12:43:27.761Z,11.14
2019-05-11T12:45:59.162Z,11.17
2019-05-11T12:48:31.346Z,11.18
2019-05-11T12:51:03.410Z,10.97
2019-05-11T12:53:35.685Z,11.03
2019-05-11T12:56:08.227Z,11.01
2019-05-11T12:58:40.319Z,11.17
2019-05-11T13:01:12.779Z,11.24
2019-05-11T13:03:44.411Z,11.19
2019-05-11T13:06:19.125Z,11.36
2019-05-11T13:08:50.795Z,10.83
2019-05-11T13:11:23.513Z,11.06
2019-05-11T13:13:55.327Z,11.25
2019-05-11T13:16:28.744Z,11.27
2019-05-11T13:19:00.992Z,11.25
2019-05-11T13:21:33.522Z,11.36
2019-05-11T13:24:05.343Z,11.30
2019-05-11T13:26:38.006Z,11.33
2019-05-11T13:29:11.016Z,11.27
2019-05-11T13:31:42.781Z,11.12
2019-05-11T13:34:14.351Z,11.24
2019-05-11T13:36:48.759Z,11.25
2019-05-11T13:39:19.766Z,11.23
2019-05-11T13:41:51.235Z,11.28
2019-05-11T13:44:23.264Z,11.22
2019-05-11T13:46:55.238Z,11.05
2019-05-11T13:49:28.325Z,10.46
2019-05-11T13:52:00.899Z,10.48
2019-05-11T13:54:32.908Z,10.35
2019-05-11T13:57:04.395Z,10.64
2019-05-11T13:59:38.461Z,10.44
2019-05-11T14:02:11.062Z,10.62
2019-05-11T14:04:43.297Z,10.62
2019-05-11T14:07:15.569Z,10.67
2019-05-11T14:09:48.520Z,10.55
2019-05-11T14:12:20.502Z,10.58
2019-05-11T14:14:52.382Z,10.60
2019-05-11T14:17:24.118Z,10.80
2019-05-11T14:19:58.470Z,10.76
2019-05-11T14:22:30.837Z,10.98
2019-05-11T14:25:02.665Z,10.88
2019-05-11T14:27:35.189Z,10.79
2019-05-11T14:30:08.562Z,10.76
2019-05-11T14:32:40.805Z,10.76
2019-05-11T14:35:12.537Z,10.74
2019-05-11T14:37:45.395Z,10.82
2019-05-11T14:40:17.957Z,10.92
2019-05-11T14:42:49.909Z,10.94
2019-05-11T14:45:22.018Z,10.72
2019-05-11T14:47:54.146Z,10.99
2019-05-11T14:50:28.181Z,11.05
2019-05-11T14:52:59.566Z,11.07
2019-05-11T14:55:31.242Z,11.26
2019-05-11T14:58:03.084Z,11.12
2019-05-11T15:00:36.892Z,11.27
2019-05-11T15:03:08.646Z,11.25
2019-05-11T15:05:41.530Z,11.40
2019-05-11T15:08:13.677Z,11.40
2019-05-11T15:10:45.397Z,11.42
2019-05-11T15:13:18.589Z,11.47
2019-05-11T15:15:50.291Z,11.41
2019-05-11T15:18:35.287Z,11.28
2019-05-11T15:20:55.480Z,11.44
2019-05-11T15:23:28.454Z,11.40
2019-05-11T15:26:00.454Z,11.44
2019-05-11T15:28:31.876Z,11.36
2019-05-11T15:31:03.925Z,11.35
2019-05-11T15:33:38.043Z,11.23
2019-05-11T15:36:10.321Z,11.37
2019-05-11T15:38:42.363Z,11.37
2019-05-11T15:41:14.626Z,11.33
2019-05-11T15:43:47.954Z,11.60
2019-05-11T15:46:20.032Z,11.67
2019-05-11T15:48:58.733Z,11.42
2019-05-11T15:51:25.989Z,11.45
2019-05-11T15:53:58.737Z,11.50
2019-05-11T15:56:30.016Z,11.52
2019-05-11T15:59:01.640Z,11.44
2019-05-11T16:01:33.937Z,11.40
2019-05-11T16:04:05.299Z,11.34
2019-05-11T16:06:36.963Z,11.49
2019-05-11T16:09:08.638Z,11.41
2019-05-11T16:11:40.432Z,11.42
2019-05-11T16:14:12.287Z,11.65
2019-05-11T16:16:44.143Z,11.58
2019-05-11T16:19:15.813Z,11.63
2019-05-11T16:21:47.461Z,11.55
2019-05-11T16:24:19.341Z,11.71
2019-05-11T16:26:51.697Z,11.71
2019-05-11T16:29:23.746Z,11.57
2019-05-11T16:31:57.842Z,11.65
2019-05-11T16:34:29.419Z,11.66
2019-05-11T16:37:01.712Z,11.66
2019-05-11T16:39:33.575Z,11.60
2019-05-11T16:42:05.628Z,11.23
2019-05-11T16:44:39.520Z,11.42
2019-05-11T16:47:11.208Z,11.55
2019-05-11T16:49:43.065Z,11.56
2019-05-11T16:52:14.699Z,11.58
2019-05-11T16:54:47.774Z,11.58
2019-05-11T16:57:19.673Z,11.63
2019-05-11T16:59:52.106Z,11.61
2019-05-11T17:02:23.655Z,11.54
2019-05-11T17:04:55.657Z,11.46
2019-05-11T17:07:29.797Z,11.36
2019-05-11T17:10:01.459Z,11.33
2019-05-11T17:12:33.777Z,11.45
2019-05-11T17:15:06.056Z,11.49
2019-05-11T17:17:38.019Z,11.68
2019-05-11T17:20:10.265Z,11.59
2019-05-11T17:22:41.824Z,11.63
2019-05-11T17:25:13.269Z,11.62
2019-05-11T17:27:45.379Z,11.66
2019-05-11T17:30:19.224Z,11.56
2019-05-11T17:32:51.303Z,11.72
2019-05-11T17:35:23.287Z,11.74
2019-05-11T17:37:55.228Z,11.68
2019-05-11T17:40:28.533Z,11.63
2019-05-11T17:43:00.645Z,11.59
2019-05-11T17:45:32.437Z,11.59
2019-05-11T17:48:03.978Z,11.65
2019-05-11T17:50:38.165Z,11.60
2019-05-11T17:53:09.158Z,11.62
2019-05-11T17:55:40.771Z,11.74
2019-05-11T17:58:12.934Z,11.47
2019-05-11T18:00:44.894Z,11.59
2019-05-11T18:03:17.108Z,11.56
2019-05-11T18:05:49.050Z,11.55
2019-05-11T18:08:20.537Z,11.56
2019-05-11T18:10:52.109Z,11.56
2019-05-11T18:13:23.411Z,11.61
2019-05-11T18:15:57.622Z,11.59
2019-05-11T18:18:29.207Z,11.58
2019-05-11T18:21:02.286Z,11.54
2019-05-11T18:23:33.627Z,11.52
2019-05-11T18:26:05.679Z,11.54
2019-05-11T18:28:37.909Z,11.56
2019-05-11T18:31:09.460Z,11.55
2019-05-11T18:33:41.426Z,11.66
2019-05-11T18:36:12.802Z,11.69
2019-05-11T18:38:44.359Z,11.68
2019-05-11T18:41:15.692Z,11.65
2019-05-11T18:43:48.360Z,11.62
2019-05-11T18:46:21.410Z,11.67
2019-05-11T18:48:54.471Z,11.75
2019-05-11T18:51:26.467Z,11.68
2019-05-11T18:53:58.627Z,11.69
2019-05-11T18:56:30.764Z,11.66
2019-05-11T18:59:02.692Z,11.52
2019-05-11T19:01:34.813Z,11.66
2019-05-11T19:04:07.825Z,11.58
2019-05-11T19:06:39.630Z,11.53
2019-05-11T19:09:11.525Z,11.49
2019-05-11T19:11:43.747Z,11.46
2019-05-11T19:14:15.480Z,11.44
2019-05-11T19:16:49.165Z,11.42
2019-05-11T19:19:21.031Z,11.45
2019-05-11T19:21:53.648Z,11.51
2019-05-11T19:24:27.762Z,11.46
2019-05-11T19:26:59.330Z,11.58
2019-05-11T19:29:31.706Z,11.44
2019-05-11T19:32:03.560Z,11.43
2019-05-11T19:34:35.344Z,11.33
2019-05-11T19:37:08.648Z,11.33
2019-05-11T19:39:41.369Z,11.37
2019-05-11T19:42:13.273Z,11.32
2019-05-11T19:44:47.879Z,11.26
2019-05-11T19:47:19.729Z,11.12
2019-05-11T19:49:52.142Z,11.09
2019-05-11T19:52:24.577Z,11.06
2019-05-11T19:54:57.763Z,11.16
2019-05-11T19:57:30.059Z,11.08
2019-05-11T20:00:02.128Z,10.92
2019-05-11T20:02:33.674Z,10.93
2019-05-11T20:05:05.226Z,10.84
2019-05-11T20:07:37.872Z,11.00
2019-05-11T20:10:10.079Z,10.94
2019-05-11T20:12:42.398Z,10.86
2019-05-11T20:15:14.299Z,10.80
2019-05-11T20:17:48.591Z,10.63
2019-05-11T20:20:20.077Z,10.69
2019-05-11T20:22:52.088Z,10.67
2019-05-11T20:25:24.213Z,10.59
2019-05-11T20:27:58.412Z,10.62
2019-05-11T20:30:30.037Z,10.55
2019-05-11T20:33:02.335Z,10.55
2019-05-11T20:35:33.804Z,10.57
2019-05-11T20:38:08.462Z,10.49
2019-05-11T20:40:39.445Z,10.48
2019-05-11T20:43:11.816Z,10.54
2019-05-11T20:45:43.692Z,10.51
2019-05-11T20:48:15.635Z,10.35
2019-05-11T20:50:48.338Z,10.30
2019-05-11T20:53:20.708Z,10.43
2019-05-11T20:55:53.523Z,10.34
2019-05-11T20:58:28.756Z,10.32
2019-05-11T21:01:00.771Z,10.27
2019-05-11T21:03:32.363Z,10.16
2019-05-11T21:06:04.639Z,10.24
2019-05-11T21:08:38.569Z,10.16
2019-05-11T21:11:09.970Z,10.11
2019-05-11T21:13:41.604Z,10.04
2019-05-11T21:16:13.636Z,9.92
2019-05-11T21:18:45.630Z,10.03
2019-05-11T21:21:17.489Z,9.94
2019-05-11T21:23:53.056Z,9.92
2019-05-11T21:26:28.229Z,9.75
2019-05-11T21:29:00.646Z,9.76
2019-05-11T21:31:32.316Z,9.75
2019-05-11T21:34:04.162Z,9.79
2019-05-11T21:36:37.917Z,9.72
2019-05-11T21:39:09.724Z,9.68
2019-05-11T21:41:41.680Z,9.53
2019-05-11T21:44:13.638Z,9.42
2019-05-11T21:46:45.708Z,9.35
2019-05-11T21:49:18.414Z,9.39
2019-05-11T21:52:03.664Z,9.44
2019-05-11T21:54:24.175Z,9.29
2019-05-11T21:56:57.826Z,9.28
2019-05-11T21:59:30.138Z,9.21
2019-05-11T22:02:02.012Z,9.19
2019-05-11T22:04:33.859Z,9.17
2019-05-11T22:07:07.863Z,9.21
2019-05-11T22:09:41.643Z,9.15
2019-05-11T22:12:12.988Z,9.15
2019-05-11T22:14:44.953Z,9.16
2019-05-11T22:17:18.219Z,9.09
2019-05-11T22:19:49.887Z,9.08
2019-05-11T22:22:25.282Z,8.95
2019-05-11T22:24:58.351Z,8.95
2019-05-11T22:27:29.779Z,8.93
2019-05-11T22:30:01.454Z,8.86
2019-05-11T22:32:33.522Z,8.88
2019-05-11T22:35:04.891Z,8.83
2019-05-11T22:37:38.679Z,8.75
2019-05-11T22:40:10.333Z,8.77
2019-05-11T22:42:42.452Z,8.72
2019-05-11T22:45:13.962Z,8.75
2019-05-11T22:47:48.032Z,8.64
2019-05-11T22:50:19.001Z,8.64
2019-05-11T22:52:50.070Z,8.60
2019-05-11T22:55:21.583Z,8.55
2019-05-11T22:57:53.860Z,8.58
2019-05-11T23:00:42.100Z,8.61
2019-05-11T23:03:14.449Z,8.57
2019-05-11T23:05:47.713Z,8.56
2019-05-11T23:08:19.387Z,8.53
2019-05-11T23:10:51.094Z,8.50
2019-05-11T23:13:22.878Z,8.44
2019-05-11T23:15:54.521Z,8.48
2019-05-11T23:18:28.637Z,8.44
2019-05-11T23:21:00.336Z,8.44
2019-05-11T23:23:31.935Z,8.39
2019-05-11T23:26:03.663Z,8.26
2019-05-11T23:28:35.246Z,8.35
2019-05-11T23:31:08.951Z,8.26
2019-05-11T23:33:40.481Z,8.24
2019-05-11T23:36:12.075Z,8.18
2019-05-11T23:38:43.988Z,8.13
2019-05-11T23:41:24.195Z,8.15
2019-05-11T23:43:48.933Z,8.08
2019-05-11T23:46:21.239Z,8.08
2019-05-11T23:48:52.760Z,8.16
2019-05-11T23:51:24.835Z,7.95
2019-05-11T23:53:58.625Z,8.01
2019-05-11T23:56:30.209Z,7.99
2019-05-11T23:59:01.481Z,7.94
